Time;durP1;ratioP1;P1;durP2;ratioP2;P2;SDS_P1;SDS_P2;PMS_P1;PMS_P2;Temp;Humidity;BMP_temperature;BMP_pressure;BME280_temperature;BME280_humidity;BME280_pressure;Samples;Min_cycle;Max_cycle;Signal;HPM_P1;HPM_P2
2023/01/18 00:00:27;;;;;;;35.03;22.10;;;;;;;;;;5054850;28;20254;-55
2023/01/18 00:02:53;;;;;;;29.50;19.03;;;;;;;;;;5057657;28;22025;-56
2023/01/18 00:05:22;;;;;;;31.13;20.30;;;;;;;;;;5037191;28;20344;-55
2023/01/18 00:07:48;;;;;;;32.93;20.83;;;;;;;;;;5033201;28;20337;-56
2023/01/18 00:10:15;;;;;;;34.80;20.37;;;;;;;;;;5039575;28;20243;-56
2023/01/18 00:12:41;;;;;;;32.00;22.27;;;;;;;;;;5058206;28;20260;-56
2023/01/18 00:15:09;;;;;;;26.73;19.80;;;;;;;;;;5045458;28;20338;-55
2023/01/18 00:17:46;;;;;;;22.37;17.33;;;;;;;;;;5039809;28;20262;-55
2023/01/18 00:20:12;;;;;;;23.00;16.37;;;;;;;;;;5036508;28;20246;-55
2023/01/18 00:22:40;;;;;;;18.37;14.73;;;;;;;;;;5037364;28;20267;-55
2023/01/18 00:25:09;;;;;;;16.10;11.93;;;;;;;;;;5046900;28;20878;-54
2023/01/18 00:27:36;;;;;;;16.70;11.60;;;;;;;;;;5037854;28;20236;-55
2023/01/18 00:30:02;;;;;;;17.33;11.87;;;;;;;;;;5049729;28;20232;-56
2023/01/18 00:32:28;;;;;;;19.10;11.60;;;;;;;;;;5033148;28;20239;-57
2023/01/18 00:34:55;;;;;;;16.10;11.53;;;;;;;;;;5047599;28;20230;-56
2023/01/18 00:37:23;;;;;;;18.13;12.43;;;;;;;;;;5031673;28;20311;-55
2023/01/18 00:39:51;;;;;;;15.93;10.50;;;;;;;;;;5038287;28;20996;-55
2023/01/18 00:45:01;;;;;;;14.13;10.53;;;;;;;;;;5029543;28;20308;-55
2023/01/18 00:47:28;;;;;;;13.73;9.63;;;;;;;;;;5034520;28;20241;-54
2023/01/18 00:49:54;;;;;;;13.23;9.60;;;;;;;;;;5044278;28;20227;-55
2023/01/18 00:52:21;;;;;;;13.70;8.37;;;;;;;;;;5032449;28;22002;-55
2023/01/18 00:54:47;;;;;;;9.27;7.47;;;;;;;;;;5041879;28;20320;-54
2023/01/18 00:57:15;;;;;;;10.27;8.63;;;;;;;;;;5038696;28;20236;-55
2023/01/18 00:59:42;;;;;;;10.60;7.07;;;;;;;;;;5041827;28;20905;-56
2023/01/18 01:02:08;;;;;;;12.93;8.40;;;;;;;;;;5039674;28;20384;-55
2023/01/18 01:07:19;;;;;;;10.50;9.37;;;;;;;;;;5058829;28;20623;-56
2023/01/18 01:09:45;;;;;;;14.17;9.30;;;;;;;;;;5036052;28;20624;-55
2023/01/18 01:26:07;;;;;;;12.60;8.40;;;;;;;;;;5038951;28;20367;-55
2023/01/18 01:28:33;;;;;;;12.60;9.20;;;;;;;;;;5040749;28;20242;-55
2023/01/18 01:31:02;;;;;;;11.20;9.43;;;;;;;;;;5045104;28;20238;-56
2023/01/18 01:33:30;;;;;;;12.83;8.27;;;;;;;;;;5042387;28;20232;-55
2023/01/18 01:35:56;;;;;;;10.70;7.93;;;;;;;;;;5044183;28;20233;-56
2023/01/18 01:38:23;;;;;;;13.20;8.83;;;;;;;;;;5041752;28;20725;-55
2023/01/18 01:40:56;;;;;;;10.90;8.07;;;;;;;;;;5045935;28;20328;-58
2023/01/18 01:43:36;;;;;;;15.23;9.43;;;;;;;;;;5040313;28;20244;-55
2023/01/18 01:46:05;;;;;;;12.27;9.13;;;;;;;;;;5056478;28;20769;-55
2023/01/18 01:48:31;;;;;;;12.43;9.70;;;;;;;;;;5073787;28;20312;-55
2023/01/18 01:50:58;;;;;;;16.37;9.87;;;;;;;;;;5065538;28;20227;-57
2023/01/18 01:53:24;;;;;;;16.40;9.87;;;;;;;;;;5055913;28;20651;-56
2023/01/18 01:55:51;;;;;;;11.83;9.87;;;;;;;;;;5074465;28;20265;-55
2023/01/18 01:58:19;;;;;;;12.67;8.57;;;;;;;;;;5051468;28;20231;-55
2023/01/18 02:00:45;;;;;;;11.47;8.73;;;;;;;;;;5058402;28;20227;-56
2023/01/18 02:03:15;;;;;;;10.97;9.00;;;;;;;;;;5064120;28;20291;-55
2023/01/18 02:05:43;;;;;;;13.70;9.67;;;;;;;;;;5074542;28;20219;-55
2023/01/18 02:08:11;;;;;;;13.77;10.60;;;;;;;;;;5051996;28;20330;-56
2023/01/18 02:10:37;;;;;;;14.93;10.00;;;;;;;;;;5046061;28;20232;-55
2023/01/18 02:13:05;;;;;;;13.97;9.50;;;;;;;;;;5049054;28;20273;-55
2023/01/18 02:15:36;;;;;;;13.43;9.27;;;;;;;;;;5058697;28;20427;-61
2023/01/18 02:18:10;;;;;;;15.33;10.87;;;;;;;;;;5032558;28;20332;-54
2023/01/18 02:20:49;;;;;;;13.67;10.97;;;;;;;;;;5045170;28;20247;-55
2023/01/18 02:23:24;;;;;;;16.00;10.97;;;;;;;;;;5043532;28;20231;-55
2023/01/18 02:26:02;;;;;;;16.30;12.93;;;;;;;;;;5037858;28;20242;-55
2023/01/18 02:28:32;;;;;;;15.97;11.83;;;;;;;;;;5043208;28;20242;-56
2023/01/18 02:31:01;;;;;;;20.47;12.30;;;;;;;;;;5046911;28;20234;-56
2023/01/18 02:33:30;;;;;;;20.20;13.10;;;;;;;;;;5046061;28;20314;-55
2023/01/18 02:35:57;;;;;;;18.87;12.37;;;;;;;;;;5046432;28;20725;-56
2023/01/18 02:38:26;;;;;;;18.93;12.77;;;;;;;;;;5045727;28;20255;-56
2023/01/18 02:40:57;;;;;;;17.40;12.03;;;;;;;;;;5056053;28;20757;-57
2023/01/18 02:46:33;;;;;;;19.03;12.27;;;;;;;;;;5003350;28;20233;-55
2023/01/18 02:49:01;;;;;;;21.67;12.57;;;;;;;;;;5055180;28;20223;-62
2023/01/18 02:51:28;;;;;;;21.90;12.40;;;;;;;;;;5033652;28;20235;-55
2023/01/18 02:53:54;;;;;;;18.77;12.27;;;;;;;;;;5062070;28;20232;-55
2023/01/18 02:56:22;;;;;;;21.63;12.97;;;;;;;;;;5051766;28;20246;-54
2023/01/18 02:58:50;;;;;;;20.33;12.33;;;;;;;;;;5047803;28;20231;-55
2023/01/18 03:01:25;;;;;;;18.33;11.80;;;;;;;;;;5046915;28;20258;-56
2023/01/18 03:03:54;;;;;;;16.40;11.90;;;;;;;;;;5035877;28;20238;-56
2023/01/18 03:06:23;;;;;;;14.03;11.30;;;;;;;;;;5048438;28;20230;-54
2023/01/18 03:08:52;;;;;;;15.23;11.27;;;;;;;;;;5051510;28;20609;-56
2023/01/18 03:11:20;;;;;;;15.63;10.83;;;;;;;;;;5048714;28;20753;-55
2023/01/18 03:13:55;;;;;;;15.07;10.57;;;;;;;;;;5043629;28;20863;-55
2023/01/18 03:16:24;;;;;;;16.83;11.57;;;;;;;;;;5042006;28;20241;-56
2023/01/18 03:19:03;;;;;;;15.97;10.20;;;;;;;;;;5042787;28;20332;-55
2023/01/18 03:21:33;;;;;;;14.07;10.73;;;;;;;;;;5039429;28;20236;-55
2023/01/18 03:24:01;;;;;;;15.90;11.20;;;;;;;;;;5039233;28;20318;-63
2023/01/18 03:26:28;;;;;;;15.40;11.83;;;;;;;;;;5040496;28;20253;-56
2023/01/18 03:34:29;;;;;;;19.50;12.23;;;;;;;;;;5046456;28;20240;-57
2023/01/18 03:36:58;;;;;;;18.43;12.50;;;;;;;;;;5051230;28;20219;-54
2023/01/18 03:39:27;;;;;;;15.73;11.43;;;;;;;;;;5058319;28;20242;-55
2023/01/18 03:41:58;;;;;;;20.00;12.00;;;;;;;;;;5059249;28;20234;-55
2023/01/18 03:44:28;;;;;;;18.77;12.57;;;;;;;;;;5054859;28;20234;-55
2023/01/18 03:46:56;;;;;;;15.17;12.77;;;;;;;;;;5055943;28;20277;-55
2023/01/18 03:49:23;;;;;;;14.07;12.20;;;;;;;;;;5057734;28;20283;-56
2023/01/18 03:51:58;;;;;;;15.23;12.07;;;;;;;;;;5063950;28;20238;-55
2023/01/18 03:54:28;;;;;;;15.93;10.37;;;;;;;;;;5044893;28;20337;-56
2023/01/18 03:56:59;;;;;;;16.23;11.70;;;;;;;;;;5042981;28;20577;-56
2023/01/18 03:59:28;;;;;;;21.10;12.70;;;;;;;;;;5051953;28;20315;-56
2023/01/18 04:01:56;;;;;;;16.70;12.07;;;;;;;;;;5045258;28;20262;-55
2023/01/18 04:04:22;;;;;;;19.90;11.07;;;;;;;;;;5039579;28;20232;-56
2023/01/18 04:06:48;;;;;;;16.67;12.10;;;;;;;;;;5038843;28;20233;-55
2023/01/18 04:09:15;;;;;;;14.00;10.60;;;;;;;;;;5036709;28;20326;-56
2023/01/18 04:11:41;;;;;;;13.87;11.10;;;;;;;;;;5043107;28;20239;-55
2023/01/18 04:14:08;;;;;;;20.40;11.37;;;;;;;;;;5034238;28;20336;-55
2023/01/18 04:16:35;;;;;;;13.90;10.73;;;;;;;;;;5042913;28;20288;-56
2023/01/18 04:19:03;;;;;;;13.70;10.37;;;;;;;;;;5038381;28;20239;-55
2023/01/18 04:21:29;;;;;;;18.03;11.17;;;;;;;;;;5030155;28;20339;-57
2023/01/18 04:23:56;;;;;;;13.13;10.17;;;;;;;;;;5047086;28;20247;-55
2023/01/18 04:26:22;;;;;;;17.33;12.37;;;;;;;;;;5055661;28;20738;-55
2023/01/18 04:28:49;;;;;;;15.80;11.33;;;;;;;;;;5049269;28;20227;-55
2023/01/18 04:31:16;;;;;;;18.20;11.87;;;;;;;;;;5057037;28;20259;-56
2023/01/18 04:33:42;;;;;;;16.73;12.53;;;;;;;;;;5058521;28;20879;-56
2023/01/18 04:36:10;;;;;;;13.33;10.57;;;;;;;;;;5046187;28;20235;-56
2023/01/18 04:38:37;;;;;;;16.20;12.00;;;;;;;;;;5041587;28;20236;-57
2023/01/18 04:41:03;;;;;;;13.03;11.27;;;;;;;;;;5048322;28;20242;-56
2023/01/18 04:43:30;;;;;;;12.30;9.63;;;;;;;;;;5059146;28;21016;-61
2023/01/18 04:45:57;;;;;;;11.27;10.17;;;;;;;;;;5054073;28;20251;-55
2023/01/18 04:48:24;;;;;;;12.20;10.90;;;;;;;;;;5047408;28;22231;-55
2023/01/18 04:50:51;;;;;;;12.10;10.50;;;;;;;;;;5060468;28;20245;-55
2023/01/18 04:53:19;;;;;;;11.13;9.90;;;;;;;;;;5057685;28;20236;-56
2023/01/18 04:55:45;;;;;;;14.73;10.10;;;;;;;;;;5049917;28;20780;-56
2023/01/18 04:58:12;;;;;;;13.47;9.73;;;;;;;;;;5039532;28;20258;-56
2023/01/18 05:00:39;;;;;;;10.57;9.47;;;;;;;;;;5040537;28;20828;-54
2023/01/18 05:03:06;;;;;;;14.10;9.77;;;;;;;;;;5038724;28;20309;-56
2023/01/18 05:05:32;;;;;;;12.07;9.43;;;;;;;;;;5047493;28;20233;-57
2023/01/18 05:07:59;;;;;;;12.20;10.00;;;;;;;;;;5040258;28;20235;-57
2023/01/18 05:10:27;;;;;;;12.63;9.93;;;;;;;;;;5047334;28;20284;-55
2023/01/18 05:12:53;;;;;;;11.27;9.47;;;;;;;;;;5041692;28;20236;-56
2023/01/18 05:15:20;;;;;;;13.77;9.17;;;;;;;;;;5053255;28;21068;-56
2023/01/18 05:17:47;;;;;;;13.67;9.83;;;;;;;;;;5037108;28;20230;-55
2023/01/18 05:20:13;;;;;;;13.83;10.30;;;;;;;;;;5037224;28;20259;-55
2023/01/18 05:22:40;;;;;;;14.43;10.40;;;;;;;;;;5039342;28;20710;-56
2023/01/18 05:25:07;;;;;;;15.27;9.60;;;;;;;;;;5042109;28;20609;-55
2023/01/18 05:27:35;;;;;;;12.77;9.73;;;;;;;;;;5044557;28;20236;-56
2023/01/18 05:30:02;;;;;;;11.90;10.07;;;;;;;;;;5054958;28;20230;-55
2023/01/18 05:32:28;;;;;;;11.90;10.70;;;;;;;;;;5071972;28;20235;-55
2023/01/18 05:34:55;;;;;;;10.27;9.13;;;;;;;;;;5045271;28;20257;-56
2023/01/18 05:37:21;;;;;;;13.97;10.87;;;;;;;;;;5064761;28;20236;-56
2023/01/18 05:39:48;;;;;;;13.43;10.60;;;;;;;;;;5068676;28;20532;-56
2023/01/18 05:42:14;;;;;;;11.07;9.80;;;;;;;;;;5068016;28;20238;-55
2023/01/18 05:44:42;;;;;;;19.27;10.97;;;;;;;;;;5056411;28;20781;-55
2023/01/18 05:47:09;;;;;;;12.67;9.80;;;;;;;;;;5071958;28;20317;-55
2023/01/18 05:49:36;;;;;;;10.83;9.23;;;;;;;;;;5066410;28;20702;-55
2023/01/18 05:52:02;;;;;;;14.53;11.03;;;;;;;;;;5042325;28;20684;-55
2023/01/18 05:54:29;;;;;;;13.13;9.73;;;;;;;;;;5035319;28;20282;-55
2023/01/18 05:56:55;;;;;;;16.63;10.40;;;;;;;;;;5042741;28;20705;-55
2023/01/18 05:59:22;;;;;;;11.20;9.73;;;;;;;;;;5049483;28;20322;-55
2023/01/18 06:01:50;;;;;;;15.07;10.17;;;;;;;;;;5043524;28;20239;-55
2023/01/18 06:04:16;;;;;;;15.90;10.27;;;;;;;;;;5045878;28;20228;-55
2023/01/18 06:06:43;;;;;;;11.83;9.40;;;;;;;;;;5046482;28;20254;-55
2023/01/18 06:09:09;;;;;;;12.70;9.50;;;;;;;;;;5042406;28;20231;-55
2023/01/18 06:11:36;;;;;;;15.53;9.70;;;;;;;;;;5041758;28;20339;-56
2023/01/18 06:14:03;;;;;;;11.93;9.43;;;;;;;;;;5053211;28;20714;-56
2023/01/18 06:16:29;;;;;;;10.77;9.17;;;;;;;;;;5041839;28;20892;-56
2023/01/18 06:18:57;;;;;;;10.60;8.40;;;;;;;;;;5037412;28;20233;-55
2023/01/18 06:21:23;;;;;;;11.17;10.07;;;;;;;;;;5047777;28;20235;-56
2023/01/18 06:23:50;;;;;;;13.47;9.10;;;;;;;;;;5035233;28;20421;-55
2023/01/18 06:26:17;;;;;;;12.23;9.47;;;;;;;;;;5045663;28;20247;-56
2023/01/18 06:28:43;;;;;;;10.47;9.37;;;;;;;;;;5047061;28;20234;-55
2023/01/18 06:31:10;;;;;;;11.43;8.47;;;;;;;;;;5069920;28;20291;-55
2023/01/18 06:33:37;;;;;;;11.87;8.10;;;;;;;;;;5072439;28;20233;-55
2023/01/18 06:36:05;;;;;;;12.03;9.00;;;;;;;;;;5055107;28;20246;-65
2023/01/18 06:38:32;;;;;;;11.07;9.70;;;;;;;;;;5057778;28;20235;-56
2023/01/18 06:40:59;;;;;;;11.40;9.10;;;;;;;;;;5061781;28;20334;-55
2023/01/18 06:43:25;;;;;;;12.67;9.13;;;;;;;;;;5057079;28;20253;-55
2023/01/18 06:45:52;;;;;;;16.00;10.10;;;;;;;;;;5067420;28;20243;-56
2023/01/18 06:48:19;;;;;;;13.43;10.80;;;;;;;;;;5064886;28;20261;-54
2023/01/18 06:50:45;;;;;;;18.63;10.40;;;;;;;;;;5051445;28;20242;-55
2023/01/18 06:53:13;;;;;;;13.43;10.13;;;;;;;;;;5059650;28;20237;-56
2023/01/18 06:55:40;;;;;;;15.17;9.30;;;;;;;;;;5049082;28;20627;-56
2023/01/18 06:58:06;;;;;;;12.17;8.07;;;;;;;;;;5053625;28;20242;-56
2023/01/18 07:00:33;;;;;;;9.93;8.03;;;;;;;;;;5035567;28;20321;-56
2023/01/18 07:03:00;;;;;;;10.63;8.30;;;;;;;;;;5043612;28;20323;-56
2023/01/18 07:05:26;;;;;;;9.67;8.43;;;;;;;;;;5037982;28;20246;-55
2023/01/18 07:07:53;;;;;;;10.40;7.63;;;;;;;;;;5045339;28;20280;-56
2023/01/18 07:10:21;;;;;;;8.73;7.80;;;;;;;;;;5041699;28;20228;-56
2023/01/18 07:12:49;;;;;;;8.50;7.63;;;;;;;;;;5039784;28;20239;-57
2023/01/18 07:15:16;;;;;;;9.70;7.23;;;;;;;;;;5036440;28;20243;-57
2023/01/18 07:17:43;;;;;;;8.80;7.90;;;;;;;;;;5038812;28;20359;-56
2023/01/18 07:20:12;;;;;;;8.87;7.57;;;;;;;;;;5041029;28;20237;-57
2023/01/18 07:22:38;;;;;;;10.93;8.00;;;;;;;;;;5056940;28;20338;-54
2023/01/18 07:25:05;;;;;;;9.13;7.80;;;;;;;;;;5064922;28;20258;-54
2023/01/18 07:27:33;;;;;;;9.23;7.60;;;;;;;;;;5082831;28;20290;-55
2023/01/18 07:30:00;;;;;;;9.47;7.00;;;;;;;;;;5044143;28;20733;-55
2023/01/18 07:32:26;;;;;;;14.70;7.63;;;;;;;;;;5058499;28;20233;-55
2023/01/18 07:34:53;;;;;;;11.93;7.30;;;;;;;;;;5056828;28;20235;-55
2023/01/18 07:37:19;;;;;;;8.67;7.07;;;;;;;;;;5041223;28;20632;-55
2023/01/18 07:39:46;;;;;;;16.77;6.73;;;;;;;;;;5069579;28;20229;-56
2023/01/18 07:42:12;;;;;;;10.97;6.23;;;;;;;;;;5032749;28;20236;-56
2023/01/18 07:44:40;;;;;;;9.60;6.50;;;;;;;;;;5038252;28;20280;-55
2023/01/18 07:47:07;;;;;;;10.90;7.27;;;;;;;;;;5043028;28;20226;-56
2023/01/18 07:49:34;;;;;;;9.77;6.13;;;;;;;;;;5038774;28;20253;-55
2023/01/18 07:52:00;;;;;;;10.77;7.27;;;;;;;;;;5034943;28;20647;-56
2023/01/18 07:54:27;;;;;;;11.43;7.90;;;;;;;;;;5048965;28;20226;-55
2023/01/18 07:56:53;;;;;;;11.67;6.20;;;;;;;;;;5040171;28;20232;-55
2023/01/18 07:59:19;;;;;;;8.27;6.77;;;;;;;;;;5032691;28;20326;-56
2023/01/18 08:01:47;;;;;;;5.23;4.63;;;;;;;;;;5043029;28;20769;-55
2023/01/18 08:04:14;;;;;;;8.80;4.40;;;;;;;;;;5048970;28;20614;-56
2023/01/18 08:06:40;;;;;;;6.67;3.77;;;;;;;;;;5057174;28;20229;-56
2023/01/18 08:09:07;;;;;;;6.37;4.30;;;;;;;;;;5045395;28;20238;-55
2023/01/18 08:11:34;;;;;;;5.07;4.53;;;;;;;;;;5046040;28;20815;-55
2023/01/18 08:14:00;;;;;;;6.13;4.30;;;;;;;;;;5051415;28;20239;-56
2023/01/18 08:16:28;;;;;;;5.03;3.97;;;;;;;;;;5046163;28;20231;-55
2023/01/18 08:18:55;;;;;;;7.53;3.90;;;;;;;;;;5033790;28;20596;-55
2023/01/18 08:21:22;;;;;;;4.27;3.07;;;;;;;;;;5034880;28;20292;-56
2023/01/18 08:23:49;;;;;;;5.67;3.40;;;;;;;;;;5033063;28;20232;-54
2023/01/18 08:26:16;;;;;;;4.53;3.73;;;;;;;;;;5060554;28;20716;-55
2023/01/18 08:28:43;;;;;;;5.17;4.37;;;;;;;;;;5069798;28;20237;-56
2023/01/18 08:31:11;;;;;;;5.33;4.30;;;;;;;;;;5054155;28;20724;-55
2023/01/18 08:33:38;;;;;;;4.90;3.80;;;;;;;;;;5057641;28;20238;-56
2023/01/18 08:36:09;;;;;;;7.37;3.57;;;;;;;;;;5046347;28;20317;-57
2023/01/18 08:38:35;;;;;;;5.20;3.83;;;;;;;;;;5042958;28;20242;-56
2023/01/18 08:41:02;;;;;;;7.60;3.70;;;;;;;;;;5039535;28;20232;-58
2023/01/18 08:43:29;;;;;;;4.03;3.40;;;;;;;;;;5035026;28;20286;-55
2023/01/18 08:45:55;;;;;;;5.93;4.17;;;;;;;;;;5047421;28;20281;-55
2023/01/18 08:48:22;;;;;;;8.97;4.53;;;;;;;;;;5042429;28;20337;-56
2023/01/18 08:50:48;;;;;;;6.27;3.80;;;;;;;;;;5043649;28;20235;-55
2023/01/18 08:53:16;;;;;;;6.37;4.37;;;;;;;;;;5049604;28;20681;-56
2023/01/18 08:55:43;;;;;;;4.33;3.87;;;;;;;;;;5046541;28;20233;-55
2023/01/18 08:58:10;;;;;;;9.00;5.03;;;;;;;;;;5045519;28;20231;-57
2023/01/18 09:00:37;;;;;;;7.30;4.43;;;;;;;;;;5036909;28;20247;-56
2023/01/18 09:03:05;;;;;;;8.03;5.33;;;;;;;;;;5035196;28;20330;-57
2023/01/18 09:05:33;;;;;;;6.83;4.30;;;;;;;;;;5035820;28;20596;-56
2023/01/18 09:08:00;;;;;;;4.13;3.23;;;;;;;;;;5033202;28;20793;-54
2023/01/18 09:10:28;;;;;;;5.50;4.17;;;;;;;;;;5029532;28;20235;-56
2023/01/18 09:12:55;;;;;;;5.63;4.00;;;;;;;;;;5042807;28;20238;-56
2023/01/18 09:15:21;;;;;;;4.87;3.90;;;;;;;;;;5058420;28;20665;-55
2023/01/18 09:17:48;;;;;;;5.03;4.33;;;;;;;;;;5065992;28;20943;-56
2023/01/18 09:20:15;;;;;;;6.50;4.07;;;;;;;;;;5059427;28;21194;-55
2023/01/18 09:22:43;;;;;;;7.67;4.07;;;;;;;;;;5044987;28;20238;-55
2023/01/18 09:25:10;;;;;;;8.37;4.33;;;;;;;;;;5040820;28;20590;-55
2023/01/18 09:27:38;;;;;;;6.27;3.70;;;;;;;;;;5041325;28;20255;-57
2023/01/18 09:30:05;;;;;;;4.50;3.43;;;;;;;;;;5063789;28;20325;-55
2023/01/18 09:32:31;;;;;;;5.77;4.30;;;;;;;;;;5042490;28;20247;-57
2023/01/18 09:34:58;;;;;;;5.13;3.60;;;;;;;;;;5029701;28;20827;-55
2023/01/18 09:37:24;;;;;;;5.97;4.20;;;;;;;;;;5050178;28;20233;-55
2023/01/18 09:39:51;;;;;;;8.13;4.20;;;;;;;;;;5038693;28;20244;-57
2023/01/18 09:42:20;;;;;;;4.33;3.83;;;;;;;;;;5038435;28;21303;-55
2023/01/18 09:44:50;;;;;;;5.27;3.77;;;;;;;;;;5026783;28;20240;-57
2023/01/18 09:47:20;;;;;;;7.47;3.83;;;;;;;;;;5027821;28;20230;-56
2023/01/18 09:49:53;;;;;;;4.47;3.73;;;;;;;;;;5044857;28;20333;-58
2023/01/18 09:52:35;;;;;;;6.23;4.17;;;;;;;;;;5050492;28;20250;-56
2023/01/18 09:55:05;;;;;;;6.77;5.07;;;;;;;;;;5048854;28;20221;-57
2023/01/18 09:57:37;;;;;;;5.57;3.60;;;;;;;;;;5050028;28;20242;-58
2023/01/18 10:00:15;;;;;;;5.57;3.93;;;;;;;;;;5045422;28;20768;-61
2023/01/18 10:02:42;;;;;;;6.83;4.33;;;;;;;;;;5044993;28;20243;-57
2023/01/18 10:05:10;;;;;;;8.07;4.27;;;;;;;;;;5055063;28;20316;-57
2023/01/18 10:07:44;;;;;;;8.77;4.90;;;;;;;;;;5044381;28;20267;-55
2023/01/18 10:10:14;;;;;;;5.43;4.33;;;;;;;;;;5042666;28;20241;-55
2023/01/18 10:12:44;;;;;;;12.77;5.00;;;;;;;;;;5044901;28;20234;-58
2023/01/18 10:15:16;;;;;;;8.77;4.40;;;;;;;;;;5040326;28;20241;-56
2023/01/18 10:17:43;;;;;;;7.10;4.47;;;;;;;;;;5057713;28;20222;-57
2023/01/18 10:20:13;;;;;;;9.53;5.60;;;;;;;;;;5051807;28;20234;-57
2023/01/18 10:22:45;;;;;;;6.13;5.53;;;;;;;;;;5052203;28;20333;-55
2023/01/18 10:25:14;;;;;;;12.63;7.63;;;;;;;;;;5060298;28;20318;-57
2023/01/18 10:27:51;;;;;;;9.70;5.77;;;;;;;;;;5056098;28;20685;-56
2023/01/18 10:30:27;;;;;;;9.33;5.90;;;;;;;;;;5041505;28;20574;-57
2023/01/18 10:32:56;;;;;;;7.87;5.23;;;;;;;;;;5049725;28;20245;-55
2023/01/18 10:35:28;;;;;;;9.37;4.80;;;;;;;;;;5041706;28;20266;-56
2023/01/18 10:37:57;;;;;;;8.27;5.70;;;;;;;;;;5042322;28;20227;-56
2023/01/18 10:40:23;;;;;;;7.30;5.17;;;;;;;;;;5039617;28;20900;-55
2023/01/18 10:42:52;;;;;;;9.37;5.37;;;;;;;;;;5036359;28;20323;-57
2023/01/18 10:45:20;;;;;;;6.00;5.27;;;;;;;;;;5048303;28;20229;-56
2023/01/18 10:47:49;;;;;;;9.57;4.73;;;;;;;;;;5045026;28;20238;-56
2023/01/18 10:50:16;;;;;;;8.83;5.73;;;;;;;;;;5039891;28;20697;-56
2023/01/18 10:52:43;;;;;;;9.87;4.80;;;;;;;;;;5042064;28;20247;-57
2023/01/18 10:55:13;;;;;;;8.43;4.57;;;;;;;;;;5044492;28;20266;-57
2023/01/18 10:57:43;;;;;;;7.10;5.10;;;;;;;;;;5041277;28;20292;-56
2023/01/18 11:00:20;;;;;;;5.43;4.17;;;;;;;;;;5046052;28;20739;-57
2023/01/18 11:02:48;;;;;;;6.50;4.57;;;;;;;;;;5042054;28;20238;-56
2023/01/18 11:05:22;;;;;;;7.90;4.90;;;;;;;;;;5039476;28;20242;-55
2023/01/18 11:08:08;;;;;;;8.53;5.30;;;;;;;;;;5056754;28;20235;-55
2023/01/18 11:10:36;;;;;;;7.23;5.07;;;;;;;;;;5051010;28;20241;-57
2023/01/18 11:13:03;;;;;;;15.10;5.37;;;;;;;;;;5061779;28;20274;-57
2023/01/18 11:15:30;;;;;;;6.17;4.20;;;;;;;;;;5050679;28;20286;-56
2023/01/18 11:18:15;;;;;;;11.87;5.03;;;;;;;;;;5043044;28;20222;-59
2023/01/18 11:20:48;;;;;;;5.40;4.23;;;;;;;;;;5041909;28;20230;-56
2023/01/18 11:23:24;;;;;;;7.60;4.90;;;;;;;;;;5047331;28;20238;-57
2023/01/18 11:25:55;;;;;;;7.27;4.50;;;;;;;;;;5053706;28;20253;-56
2023/01/18 11:28:23;;;;;;;6.20;4.90;;;;;;;;;;5045082;28;20258;-57
2023/01/18 11:30:51;;;;;;;7.10;4.67;;;;;;;;;;5031811;28;20263;-56
2023/01/18 11:33:18;;;;;;;5.73;4.47;;;;;;;;;;5056204;28;20368;-56
2023/01/18 11:35:45;;;;;;;7.60;4.80;;;;;;;;;;5059295;28;20243;-56
2023/01/18 11:38:18;;;;;;;5.47;3.87;;;;;;;;;;5056775;28;20242;-56
2023/01/18 11:40:44;;;;;;;4.33;3.93;;;;;;;;;;5045999;28;20227;-55
2023/01/18 11:43:14;;;;;;;6.37;4.53;;;;;;;;;;5059127;28;20240;-56
2023/01/18 11:45:43;;;;;;;6.60;4.83;;;;;;;;;;5042945;28;20253;-56
2023/01/18 11:48:13;;;;;;;4.90;4.40;;;;;;;;;;5054531;28;20728;-56
2023/01/18 11:50:42;;;;;;;7.80;4.90;;;;;;;;;;5060194;28;20234;-55
2023/01/18 11:53:16;;;;;;;6.53;4.50;;;;;;;;;;5041325;28;20803;-55
2023/01/18 11:55:55;;;;;;;6.43;4.63;;;;;;;;;;5045774;28;20264;-56
2023/01/18 11:58:24;;;;;;;6.93;4.33;;;;;;;;;;5063933;28;20242;-55
2023/01/18 12:00:54;;;;;;;6.17;4.77;;;;;;;;;;5050551;28;20237;-56
2023/01/18 12:03:26;;;;;;;11.07;6.10;;;;;;;;;;5038881;28;20314;-55
2023/01/18 12:05:54;;;;;;;6.97;5.37;;;;;;;;;;5047704;28;20260;-55
2023/01/18 12:08:37;;;;;;;10.93;4.97;;;;;;;;;;5055888;28;20283;-55
2023/01/18 12:11:09;;;;;;;12.10;5.13;;;;;;;;;;5047574;28;20232;-56
2023/01/18 12:13:36;;;;;;;5.77;4.40;;;;;;;;;;5050893;28;20601;-56
2023/01/18 12:16:08;;;;;;;5.67;5.00;;;;;;;;;;5055505;28;20229;-56
2023/01/18 12:18:45;;;;;;;7.63;5.10;;;;;;;;;;5047496;28;20451;-56
2023/01/18 12:21:12;;;;;;;5.90;4.40;;;;;;;;;;5058243;28;20712;-55
2023/01/18 12:23:56;;;;;;;5.17;4.67;;;;;;;;;;5059094;28;20309;-55
2023/01/18 12:26:29;;;;;;;6.60;4.90;;;;;;;;;;5060167;28;20472;-56
2023/01/18 12:29:15;;;;;;;11.30;5.60;;;;;;;;;;5060846;28;20843;-55
2023/01/18 12:31:50;;;;;;;6.60;5.40;;;;;;;;;;5054263;28;20227;-56
2023/01/18 12:34:19;;;;;;;9.13;4.80;;;;;;;;;;5040247;28;20238;-56
2023/01/18 12:36:51;;;;;;;5.53;4.97;;;;;;;;;;5064855;28;20333;-56
2023/01/18 12:39:24;;;;;;;10.87;5.40;;;;;;;;;;5045657;28;20829;-56
2023/01/18 12:41:57;;;;;;;6.03;4.60;;;;;;;;;;5061678;28;22437;-57
2023/01/18 12:44:30;;;;;;;8.93;5.03;;;;;;;;;;5043124;28;20751;-55
2023/01/18 12:46:59;;;;;;;7.17;4.43;;;;;;;;;;5059086;28;20230;-55
2023/01/18 12:49:28;;;;;;;4.67;4.27;;;;;;;;;;5048193;28;20271;-56
2023/01/18 12:51:56;;;;;;;9.33;5.33;;;;;;;;;;5058818;28;20237;-56
2023/01/18 12:54:26;;;;;;;7.87;5.27;;;;;;;;;;5048112;28;20233;-56
2023/01/18 12:56:55;;;;;;;10.10;4.90;;;;;;;;;;5058894;28;20647;-56
2023/01/18 12:59:24;;;;;;;7.63;5.57;;;;;;;;;;5051508;28;20388;-57
2023/01/18 13:01:54;;;;;;;7.93;5.13;;;;;;;;;;5057049;28;20323;-56
2023/01/18 13:04:23;;;;;;;6.67;5.47;;;;;;;;;;5062009;28;20313;-55
2023/01/18 13:06:50;;;;;;;8.87;5.03;;;;;;;;;;5057212;28;20605;-55
2023/01/18 13:09:18;;;;;;;8.63;5.63;;;;;;;;;;5061178;28;20936;-56
2023/01/18 13:11:45;;;;;;;5.07;4.60;;;;;;;;;;5049633;28;20318;-59
2023/01/18 13:14:17;;;;;;;8.13;5.80;;;;;;;;;;5043410;28;20226;-57
2023/01/18 13:16:46;;;;;;;8.53;6.10;;;;;;;;;;5057365;28;20230;-56
2023/01/18 13:19:14;;;;;;;6.90;5.50;;;;;;;;;;5063427;28;20657;-55
2023/01/18 13:21:47;;;;;;;8.37;6.07;;;;;;;;;;5060554;28;20240;-56
2023/01/18 13:24:20;;;;;;;8.37;6.17;;;;;;;;;;5069195;28;20313;-61
2023/01/18 13:26:46;;;;;;;8.03;5.17;;;;;;;;;;5070362;28;20241;-56
2023/01/18 13:29:24;;;;;;;12.63;6.67;;;;;;;;;;5060779;28;20265;-54
2023/01/18 13:31:51;;;;;;;12.17;7.00;;;;;;;;;;5068365;28;20234;-56
2023/01/18 13:34:23;;;;;;;11.43;6.40;;;;;;;;;;5048198;28;20230;-56
2023/01/18 13:36:50;;;;;;;8.33;6.30;;;;;;;;;;5063960;28;20324;-56
2023/01/18 13:39:18;;;;;;;8.20;6.40;;;;;;;;;;5056471;28;20616;-56
2023/01/18 13:42:00;;;;;;;9.17;6.30;;;;;;;;;;5056558;28;20293;-56
2023/01/18 13:44:31;;;;;;;7.10;6.10;;;;;;;;;;5060882;28;20253;-55
2023/01/18 13:46:59;;;;;;;7.07;5.10;;;;;;;;;;5052588;28;20230;-56
2023/01/18 13:49:33;;;;;;;8.93;7.10;;;;;;;;;;5068488;28;20229;-56
2023/01/18 13:52:00;;;;;;;9.17;6.53;;;;;;;;;;5049943;28;20700;-56
2023/01/18 13:54:45;;;;;;;9.13;6.43;;;;;;;;;;5057097;28;20257;-57
2023/01/18 13:57:16;;;;;;;12.47;6.67;;;;;;;;;;5052693;28;20301;-56
2023/01/18 13:59:47;;;;;;;8.53;7.23;;;;;;;;;;5055768;28;20796;-57
2023/01/18 14:02:17;;;;;;;7.90;5.57;;;;;;;;;;5051282;28;20249;-55
2023/01/18 14:04:44;;;;;;;8.40;6.00;;;;;;;;;;5052673;28;20331;-55
2023/01/18 14:07:18;;;;;;;7.50;6.07;;;;;;;;;;5047180;28;20273;-56
2023/01/18 14:09:46;;;;;;;9.47;6.30;;;;;;;;;;5054576;28;20654;-55
2023/01/18 14:12:13;;;;;;;7.20;5.63;;;;;;;;;;5063605;28;20240;-55
2023/01/18 14:14:55;;;;;;;10.30;6.07;;;;;;;;;;5057608;28;20236;-57
2023/01/18 14:17:21;;;;;;;9.77;6.33;;;;;;;;;;5061155;28;20735;-55
2023/01/18 14:19:59;;;;;;;14.37;7.27;;;;;;;;;;5061069;28;20240;-56
2023/01/18 14:22:31;;;;;;;15.53;6.73;;;;;;;;;;5058980;28;20254;-55
2023/01/18 14:25:03;;;;;;;7.17;6.30;;;;;;;;;;5056672;28;20243;-55
2023/01/18 14:27:33;;;;;;;10.27;6.80;;;;;;;;;;5060920;28;20226;-55
2023/01/18 14:30:04;;;;;;;6.60;5.70;;;;;;;;;;5063915;28;20313;-55
2023/01/18 14:32:33;;;;;;;7.73;6.00;;;;;;;;;;5056599;28;20321;-56
2023/01/18 14:35:00;;;;;;;10.10;5.53;;;;;;;;;;5047546;28;20741;-55
2023/01/18 14:37:28;;;;;;;9.67;7.03;;;;;;;;;;5057631;28;20334;-55
2023/01/18 14:40:13;;;;;;;7.43;6.47;;;;;;;;;;5056792;28;20314;-55
2023/01/18 14:42:43;;;;;;;9.37;6.37;;;;;;;;;;5042035;28;20240;-55
2023/01/18 14:45:18;;;;;;;12.37;7.23;;;;;;;;;;5064194;28;20321;-55
2023/01/18 14:47:46;;;;;;;8.40;6.53;;;;;;;;;;5044774;28;20310;-59
2023/01/18 14:50:15;;;;;;;8.17;5.60;;;;;;;;;;5050741;28;20246;-55
2023/01/18 14:52:42;;;;;;;8.77;6.60;;;;;;;;;;5063531;28;20416;-56
2023/01/18 14:55:22;;;;;;;8.40;6.30;;;;;;;;;;5074372;28;20226;-55
2023/01/18 14:57:50;;;;;;;8.00;6.03;;;;;;;;;;5062444;28;20241;-56
2023/01/18 15:00:19;;;;;;;10.70;5.90;;;;;;;;;;5046114;28;20669;-55
2023/01/18 15:02:45;;;;;;;8.83;6.00;;;;;;;;;;5070017;28;20234;-55
2023/01/18 15:05:13;;;;;;;12.50;5.73;;;;;;;;;;5057084;28;20456;-55
2023/01/18 15:07:40;;;;;;;7.63;5.50;;;;;;;;;;5058258;28;20253;-55
2023/01/18 15:10:07;;;;;;;9.77;6.47;;;;;;;;;;5067570;28;20321;-55